createdAt,value
2022-12-01T00:01:06.872Z,102622.03
2022-12-01T00:03:33.928Z,102615.88
2022-12-01T00:06:06.574Z,102618.31
2022-12-01T00:08:34.564Z,102615.78
2022-12-01T00:11:04.713Z,102621.03
2022-12-01T00:13:31.685Z,102620.19
2022-12-01T00:15:58.491Z,102625.47
2022-12-01T00:18:25.032Z,102609.50
2022-12-01T00:20:56.014Z,102609.00
2022-12-01T00:23:23.163Z,102620.81
2022-12-01T00:25:49.691Z,102607.91
2022-12-01T00:28:16.318Z,102601.00
2022-12-01T00:30:42.863Z,102611.34
2022-12-01T00:33:09.278Z,102616.44
2022-12-01T00:35:35.725Z,102617.38
2022-12-01T00:38:02.125Z,102612.06
2022-12-01T00:40:28.539Z,102605.19
2022-12-01T00:42:55.132Z,102608.78
2022-12-01T00:45:21.590Z,102602.84
2022-12-01T00:47:48.044Z,102601.84
2022-12-01T00:50:14.481Z,102617.38
2022-12-01T00:52:41.018Z,102616.72
2022-12-01T00:55:07.760Z,102609.81
2022-12-01T00:57:34.306Z,102614.16
2022-12-01T01:00:00.770Z,102626.34
2022-12-01T01:02:27.282Z,102621.19
2022-12-01T01:04:53.981Z,102620.31
2022-12-01T01:07:21.611Z,102616.19
2022-12-01T01:09:48.428Z,102628.38
2022-12-01T01:12:14.987Z,102627.66
2022-12-01T01:14:41.534Z,102628.53
2022-12-01T01:17:08.091Z,102633.03
2022-12-01T01:19:34.522Z,102635.69
2022-12-01T01:22:01.227Z,102637.50
2022-12-01T01:24:27.670Z,102637.41
2022-12-01T01:26:55.374Z,102640.16
2022-12-01T01:29:22.076Z,102647.78
2022-12-01T01:31:48.486Z,102649.63
2022-12-01T01:34:14.898Z,102633.19
2022-12-01T01:36:41.431Z,102647.03
2022-12-01T01:39:07.952Z,102618.50
2022-12-01T01:41:34.441Z,102625.38
2022-12-01T01:44:05.822Z,102642.47
2022-12-01T01:46:34.871Z,102638.13
2022-12-01T01:49:04.810Z,102649.97
2022-12-01T01:51:43.284Z,102635.91
2022-12-01T01:54:19.437Z,102640.00
2022-12-01T01:56:47.518Z,102647.31
2022-12-01T01:59:17.197Z,102644.81
2022-12-01T02:01:44.189Z,102633.47
2022-12-01T02:04:10.749Z,102632.91
2022-12-01T02:06:37.281Z,102639.72
2022-12-01T02:09:03.800Z,102648.44
2022-12-01T02:11:55.588Z,102648.25
2022-12-01T02:14:39.150Z,102643.22
2022-12-01T02:17:41.584Z,102645.59
2022-12-01T02:20:39.213Z,102648.44
2022-12-01T02:23:30.358Z,102649.31
2022-12-01T02:26:36.941Z,102649.25
2022-12-01T02:29:17.695Z,102650.25
2022-12-01T02:32:21.154Z,102650.25
2022-12-01T02:34:58.981Z,102652.22
2022-12-01T02:37:36.235Z,102650.47
2022-12-01T02:40:12.294Z,102642.53
2022-12-01T02:42:51.680Z,102653.22
2022-12-01T02:45:34.952Z,102642.59
2022-12-01T02:48:05.192Z,102637.69
2022-12-01T02:50:33.461Z,102658.94
2022-12-01T02:53:03.033Z,102650.56
2022-12-01T02:55:29.489Z,102652.41
2022-12-01T02:57:55.928Z,102637.69
2022-12-01T03:00:22.900Z,102653.34
2022-12-01T03:03:22.868Z,102634.28
2022-12-01T03:06:02.974Z,102650.63
2022-12-01T03:08:47.948Z,102658.50
2022-12-01T03:11:29.420Z,102645.25
2022-12-01T03:14:17.837Z,102652.22
2022-12-01T03:16:52.256Z,102649.63
2022-12-01T03:19:27.189Z,102643.47
2022-12-01T03:22:17.117Z,102643.53
2022-12-01T03:24:47.687Z,102623.56
2022-12-01T03:27:18.478Z,102645.25
2022-12-01T03:29:48.644Z,102646.97
2022-12-01T03:32:32.204Z,102645.19
2022-12-01T03:35:16.213Z,102652.28
2022-12-01T03:37:52.160Z,102650.47
2022-12-01T03:40:22.772Z,102658.50
2022-12-01T03:43:07.528Z,102653.13
2022-12-01T03:45:56.417Z,102654.00
2022-12-01T03:48:24.215Z,102646.44
2022-12-01T03:51:05.688Z,102628.25
2022-12-01T03:54:17.798Z,102658.44
2022-12-01T03:56:49.694Z,102644.72
2022-12-01T03:59:18.263Z,102657.84
2022-12-01T04:01:45.765Z,102653.56
2022-12-01T04:04:13.539Z,102650.22
2022-12-01T04:06:46.470Z,102652.75
2022-12-01T04:09:13.394Z,102651.06
2022-12-01T04:11:58.694Z,102638.22
2022-12-01T04:14:25.495Z,102633.91
2022-12-01T04:16:51.967Z,102651.28
2022-12-01T04:19:18.378Z,102650.75
2022-12-01T04:21:44.796Z,102649.88
2022-12-01T04:24:12.416Z,102652.47
2022-12-01T04:26:39.003Z,102642.97
2022-12-01T04:29:08.241Z,102643.16
2022-12-01T04:31:35.401Z,102662.22
2022-12-01T04:34:02.447Z,102659.81
2022-12-01T04:36:33.594Z,102655.19
2022-12-01T04:39:00.779Z,102655.50
2022-12-01T04:41:27.687Z,102657.34
2022-12-01T04:43:54.990Z,102642.06
2022-12-01T04:46:22.431Z,102664.38
2022-12-01T04:48:49.217Z,102660.94
2022-12-01T04:51:15.778Z,102649.97
2022-12-01T04:53:42.221Z,102662.00
2022-12-01T04:56:08.908Z,102647.44
2022-12-01T04:58:37.726Z,102665.63
2022-12-01T05:01:07.196Z,102657.06
2022-12-01T05:03:37.314Z,102660.34
2022-12-01T05:06:10.809Z,102658.47
2022-12-01T05:08:37.351Z,102656.25
2022-12-01T05:11:05.092Z,102662.22
2022-12-01T05:13:31.745Z,102663.06
2022-12-01T05:16:12.306Z,102666.66
2022-12-01T05:18:39.922Z,102669.31
2022-12-01T05:21:09.754Z,102646.16
2022-12-01T05:23:37.622Z,102665.06
2022-12-01T05:26:06.499Z,102674.69
2022-12-01T05:28:33.462Z,102671.09
2022-12-01T05:31:00.014Z,102675.53
2022-12-01T05:33:27.713Z,102679.06
2022-12-01T05:35:54.727Z,102680.91
2022-12-01T05:38:21.431Z,102677.66
2022-12-01T05:40:53.230Z,102682.72
2022-12-01T05:43:26.852Z,102676.81
2022-12-01T05:45:55.623Z,102674.09
2022-12-01T05:48:22.355Z,102685.28
2022-12-01T05:50:48.962Z,102690.66
2022-12-01T05:53:15.709Z,102671.38
2022-12-01T05:55:42.399Z,102685.22
2022-12-01T05:58:09.895Z,102677.28
2022-12-01T06:00:42.253Z,102694.88
2022-12-01T06:03:11.951Z,102690.59
2022-12-01T06:05:42.700Z,102683.44
2022-12-01T06:08:09.174Z,102686.84
2022-12-01T06:10:35.792Z,102695.84
2022-12-01T06:13:02.457Z,102685.06
2022-12-01T06:15:28.892Z,102681.72
2022-12-01T06:17:58.996Z,102694.03
2022-12-01T06:20:26.192Z,102700.09
2022-12-01T06:22:52.609Z,102696.75
2022-12-01T06:25:19.155Z,102701.84
2022-12-01T06:27:45.570Z,102712.38
2022-12-01T06:30:12.381Z,102706.50
2022-12-01T06:32:38.969Z,102709.00
2022-12-01T06:35:05.944Z,102709.00
2022-12-01T06:37:32.655Z,102714.97
2022-12-01T06:39:59.140Z,102709.00
2022-12-01T06:42:29.539Z,102709.94
2022-12-01T06:44:55.942Z,102700.47
2022-12-01T06:47:22.345Z,102710.88
2022-12-01T06:49:49.119Z,102712.66
2022-12-01T06:52:15.805Z,102710.78
2022-12-01T06:54:42.215Z,102709.84
2022-12-01T06:57:08.932Z,102704.84
2022-12-01T06:59:35.803Z,102707.44
2022-12-01T07:02:03.150Z,102724.84
2022-12-01T07:04:30.398Z,102716.09
2022-12-01T07:06:56.908Z,102724.03
2022-12-01T07:09:23.759Z,102734.44
2022-12-01T07:11:50.189Z,102731.72
2022-12-01T07:14:23.351Z,102728.28
2022-12-01T07:16:50.013Z,102740.53
2022-12-01T07:19:16.716Z,102718.97
2022-12-01T07:21:43.491Z,102727.72
2022-12-01T07:24:10.372Z,102737.16
2022-12-01T07:26:36.884Z,102734.44
2022-12-01T07:29:03.458Z,102736.53
2022-12-01T07:31:30.005Z,102745.97
2022-12-01T07:33:56.667Z,102735.59
2022-12-01T07:36:23.128Z,102738.25
2022-12-01T07:38:49.564Z,102736.53
2022-12-01T07:41:20.839Z,102739.00
2022-12-01T07:43:48.265Z,102747.91
2022-12-01T07:46:20.387Z,102749.63
2022-12-01T07:48:49.140Z,102747.38
2022-12-01T07:51:16.777Z,102747.19
2022-12-01T07:53:49.288Z,102755.84
2022-12-01T07:56:16.786Z,102756.66
2022-12-01T07:58:43.637Z,102755.03
2022-12-01T08:01:13.149Z,102748.06
2022-12-01T08:03:40.579Z,102765.53
2022-12-01T08:06:08.164Z,102766.38
2022-12-01T08:08:36.715Z,102766.44
2022-12-01T08:11:06.633Z,102741.34
2022-12-01T08:13:33.360Z,102771.63
2022-12-01T08:16:04.128Z,102772.63
2022-12-01T08:18:30.585Z,102759.84
2022-12-01T08:21:00.489Z,102774.69
2022-12-01T08:23:26.932Z,102770.31
2022-12-01T08:25:54.041Z,102763.28
2022-12-01T08:28:20.900Z,102776.13
2022-12-01T08:30:47.739Z,102776.13
2022-12-01T08:33:14.250Z,102777.06
2022-12-01T08:35:40.901Z,102772.72
2022-12-01T08:38:07.318Z,102763.22
2022-12-01T08:40:33.744Z,102775.22
2022-12-01T08:43:00.395Z,102770.69
2022-12-01T08:45:26.913Z,102780.31
2022-12-01T08:47:54.845Z,102766.44
2022-12-01T08:50:21.272Z,102772.56
2022-12-01T08:52:47.751Z,102781.91
2022-12-01T08:55:14.220Z,102772.31
2022-12-01T08:57:40.728Z,102757.66
2022-12-01T09:00:07.817Z,102784.44
2022-12-01T09:02:37.334Z,102776.38
2022-12-01T09:05:04.806Z,102765.16
2022-12-01T09:07:34.010Z,102789.31
2022-12-01T09:10:00.535Z,102773.53
2022-12-01T09:12:29.303Z,102788.13
2022-12-01T09:14:55.763Z,102775.13
2022-12-01T09:17:23.790Z,102778.22
2022-12-01T09:19:50.526Z,102782.53
2022-12-01T09:22:17.332Z,102768.41
2022-12-01T09:24:43.774Z,102789.00
2022-12-01T09:27:10.309Z,102791.47
2022-12-01T09:29:36.742Z,102790.47
2022-12-01T09:32:03.502Z,102790.41
2022-12-01T09:34:30.153Z,102779.78
2022-12-01T09:36:58.521Z,102785.59
2022-12-01T09:39:25.561Z,102771.38
2022-12-01T09:42:13.923Z,102791.06
2022-12-01T09:44:53.033Z,102785.75
2022-12-01T09:47:35.337Z,102788.91
2022-12-01T09:50:16.077Z,102783.75
2022-12-01T09:53:17.387Z,102784.28
2022-12-01T09:55:44.249Z,102772.25
2022-12-01T09:58:19.678Z,102766.94
2022-12-01T10:00:49.482Z,102783.28
2022-12-01T10:03:27.808Z,102772.66
2022-12-01T10:06:28.439Z,102787.25
2022-12-01T10:09:07.243Z,102777.25
2022-12-01T10:11:38.883Z,102774.66
2022-12-01T10:14:09.140Z,102781.34
2022-12-01T10:16:40.049Z,102781.38
2022-12-01T10:19:28.643Z,102772.06
2022-12-01T10:22:23.854Z,102772.97
2022-12-01T10:24:57.779Z,102758.91
2022-12-01T10:27:49.414Z,102768.53
2022-12-01T10:30:18.612Z,102770.66
2022-12-01T10:33:25.265Z,102766.03
2022-12-01T10:35:52.792Z,102755.72
2022-12-01T10:38:32.527Z,102765.94
2022-12-01T10:41:01.451Z,102763.47
2022-12-01T10:43:40.949Z,102762.59
2022-12-01T10:46:26.174Z,102759.38
2022-12-01T10:49:00.887Z,102756.47
2022-12-01T10:51:28.083Z,102768.16
2022-12-01T10:54:07.356Z,102755.31
2022-12-01T10:56:34.169Z,102757.41
2022-12-01T10:59:12.630Z,102759.41
2022-12-01T11:01:48.235Z,102764.81
2022-12-01T11:04:47.856Z,102766.59
2022-12-01T11:07:16.961Z,102760.84
2022-12-01T11:09:46.164Z,102763.88
2022-12-01T11:12:17.332Z,102753.66
2022-12-01T11:14:52.649Z,102766.59
2022-12-01T11:17:33.399Z,102770.22
2022-12-01T11:20:25.609Z,102772.97
2022-12-01T11:22:52.234Z,102759.31
2022-12-01T11:25:20.833Z,102760.91
2022-12-01T11:27:51.635Z,102760.06
2022-12-01T11:30:26.476Z,102767.91
2022-12-01T11:32:58.061Z,102768.22
2022-12-01T11:35:27.938Z,102775.31
2022-12-01T11:38:28.409Z,102764.63
2022-12-01T11:40:56.567Z,102755.16
2022-12-01T11:43:30.456Z,102765.81
2022-12-01T11:46:00.660Z,102753.13
2022-12-01T11:48:28.404Z,102772.59
2022-12-01T11:51:02.490Z,102769.69
2022-12-01T11:53:33.212Z,102748.50
2022-12-01T11:56:20.854Z,102769.22
2022-12-01T11:58:49.044Z,102771.44
2022-12-01T12:01:44.922Z,102768.00
2022-12-01T12:04:28.896Z,102763.53
2022-12-01T12:07:21.360Z,102759.22
2022-12-01T12:10:15.529Z,102752.38
2022-12-01T12:13:15.673Z,102747.13
2022-12-01T12:15:51.144Z,102757.88
2022-12-01T12:18:36.862Z,102757.88
2022-12-01T12:21:23.992Z,102737.78
2022-12-01T12:24:09.118Z,102752.63
2022-12-01T12:26:44.951Z,102757.94
2022-12-01T12:29:27.293Z,102740.34
2022-12-01T12:32:14.990Z,102752.50
2022-12-01T12:35:02.882Z,102758.78
2022-12-01T12:37:29.238Z,102751.69
2022-12-01T12:40:08.369Z,102738.56
2022-12-01T12:42:52.761Z,102742.53
2022-12-01T12:45:28.466Z,102738.03
2022-12-01T12:48:22.483Z,102749.31
2022-12-01T12:51:30.282Z,102740.47
2022-12-01T12:54:25.368Z,102743.94
2022-12-01T12:57:00.475Z,102737.44
2022-12-01T12:59:42.223Z,102745.25
2022-12-01T13:02:21.986Z,102736.84
2022-12-01T13:05:12.907Z,102738.56
2022-12-01T13:07:49.312Z,102737.84
2022-12-01T13:10:35.757Z,102731.84
2022-12-01T13:13:25.987Z,102740.34
2022-12-01T13:15:54.458Z,102743.56
2022-12-01T13:18:32.635Z,102739.50
2022-12-01T13:21:02.752Z,102738.63
2022-12-01T13:23:29.787Z,102737.84
2022-12-01T13:25:58.645Z,102746.59
2022-12-01T13:28:30.234Z,102742.03
2022-12-01T13:31:09.300Z,102747.19
2022-12-01T13:33:37.755Z,102750.78
2022-12-01T13:39:18.555Z,102752.44
2022-12-01T13:41:46.046Z,102749.19
2022-12-01T13:44:41.346Z,102749.97
2022-12-01T13:47:10.804Z,102753.56
2022-12-01T13:49:49.453Z,102742.44
2022-12-01T13:52:22.205Z,102756.31
2022-12-01T13:55:10.057Z,102753.75
2022-12-01T13:57:44.940Z,102746.25
2022-12-01T14:00:32.048Z,102746.06
2022-12-01T14:03:17.524Z,102751.50
2022-12-01T14:05:53.393Z,102749.97
2022-12-01T14:08:24.865Z,102744.94
2022-12-01T14:10:58.363Z,102759.97
2022-12-01T14:13:25.807Z,102754.81
2022-12-01T14:15:59.743Z,102743.72
2022-12-01T14:18:43.988Z,102754.09
2022-12-01T14:21:12.429Z,102745.56
2022-12-01T14:23:59.695Z,102746.41
2022-12-01T14:26:29.070Z,102737.00
2022-12-01T14:28:55.577Z,102741.25
2022-12-01T14:31:23.723Z,102734.47
2022-12-01T14:33:52.203Z,102740.50
2022-12-01T14:36:24.468Z,102744.19
2022-12-01T14:39:00.062Z,102730.25
2022-12-01T14:41:30.871Z,102741.03
2022-12-01T14:44:28.166Z,102733.06
2022-12-01T14:46:58.499Z,102726.97
2022-12-01T14:49:32.004Z,102718.50
2022-12-01T14:52:05.443Z,102728.13
2022-12-01T14:54:44.704Z,102728.06
2022-12-01T14:57:16.652Z,102734.50
2022-12-01T14:59:44.375Z,102734.44
2022-12-01T15:02:12.301Z,102719.72
2022-12-01T15:05:10.208Z,102737.75
2022-12-01T15:07:40.063Z,102734.63
2022-12-01T15:10:17.516Z,102728.47
2022-12-01T15:12:44.230Z,102718.97
2022-12-01T15:15:19.826Z,102716.38
2022-12-01T15:17:51.091Z,102735.50
2022-12-01T15:20:32.928Z,102725.69
2022-12-01T15:23:01.060Z,102727.59
2022-12-01T15:25:35.326Z,102726.69
2022-12-01T15:28:18.667Z,102726.63
2022-12-01T15:30:51.621Z,102722.25
2022-12-01T15:33:27.780Z,102728.41
2022-12-01T15:35:56.979Z,102714.59
2022-12-01T15:38:30.925Z,102726.75
2022-12-01T15:41:28.481Z,102731.13
2022-12-01T15:43:58.494Z,102733.81
2022-12-01T15:46:30.837Z,102732.22
2022-12-01T15:49:07.096Z,102735.72
2022-12-01T15:51:34.056Z,102737.66
2022-12-01T15:54:01.930Z,102737.78
2022-12-01T15:56:41.334Z,102739.25
2022-12-01T15:59:17.701Z,102740.22
2022-12-01T16:01:44.880Z,102736.59
2022-12-01T16:04:21.638Z,102741.81
2022-12-01T16:06:54.322Z,102746.25
2022-12-01T16:09:35.725Z,102738.31
2022-12-01T16:12:23.312Z,102744.47
2022-12-01T16:15:06.982Z,102742.81
2022-12-01T16:17:46.657Z,102741.88
2022-12-01T16:20:17.919Z,102748.97
2022-12-01T16:22:47.417Z,102728.16
2022-12-01T16:25:45.438Z,102747.88
2022-12-01T16:28:24.261Z,102741.78
2022-12-01T16:30:51.905Z,102740.31
2022-12-01T16:33:22.129Z,102748.03
2022-12-01T16:35:49.310Z,102743.91
2022-12-01T16:38:28.769Z,102748.78
2022-12-01T16:41:14.061Z,102751.44
2022-12-01T16:43:50.196Z,102747.00
2022-12-01T16:46:25.843Z,102750.69
2022-12-01T16:48:52.548Z,102747.19
2022-12-01T16:51:29.292Z,102750.75
2022-12-01T16:53:59.416Z,102758.47
2022-12-01T16:56:25.885Z,102752.47
2022-12-01T16:58:52.304Z,102756.00
2022-12-01T17:01:18.844Z,102749.81
2022-12-01T17:03:45.515Z,102757.66
2022-12-01T17:06:17.374Z,102754.84
2022-12-01T17:08:43.921Z,102757.59
2022-12-01T17:11:10.405Z,102761.00
2022-12-01T17:13:38.478Z,102765.41
2022-12-01T17:16:07.077Z,102751.31
2022-12-01T17:18:38.065Z,102759.91
2022-12-01T17:21:08.073Z,102737.41
2022-12-01T17:23:37.792Z,102758.22
2022-12-01T17:26:10.392Z,102754.72
2022-12-01T17:28:37.275Z,102759.16
2022-12-01T17:31:04.864Z,102759.16
2022-12-01T17:33:31.998Z,102758.34
2022-12-01T17:36:07.338Z,102760.06
2022-12-01T17:38:35.315Z,102769.00
2022-12-01T17:41:04.569Z,102766.28
2022-12-01T17:43:31.875Z,102762.84
2022-12-01T17:45:58.388Z,102754.25
2022-12-01T17:48:25.399Z,102750.91
2022-12-01T17:50:51.884Z,102759.50
2022-12-01T17:53:18.343Z,102750.91
2022-12-01T17:55:45.129Z,102752.81
2022-12-01T17:58:11.549Z,102771.88
2022-12-01T18:00:38.017Z,102760.75
2022-12-01T18:03:04.671Z,102769.34
2022-12-01T18:05:31.235Z,102762.47
2022-12-01T18:07:57.918Z,102761.59
2022-12-01T18:10:24.740Z,102757.28
2022-12-01T18:12:51.180Z,102767.81
2022-12-01T18:15:18.236Z,102765.16
2022-12-01T18:17:44.671Z,102772.38
2022-12-01T18:20:11.433Z,102769.09
2022-12-01T18:22:37.971Z,102770.88
2022-12-01T18:25:04.774Z,102764.84
2022-12-01T18:27:31.316Z,102763.94
2022-12-01T18:29:57.744Z,102770.22
2022-12-01T18:32:24.349Z,102778.94
2022-12-01T18:34:50.913Z,102771.25
2022-12-01T18:37:17.556Z,102772.16
2022-12-01T18:39:43.998Z,102773.88
2022-12-01T18:42:11.179Z,102774.81
2022-12-01T18:44:39.005Z,102787.19
2022-12-01T18:47:06.461Z,102766.44
2022-12-01T18:49:33.018Z,102771.66
2022-12-01T18:52:00.238Z,102756.25
2022-12-01T18:54:27.122Z,102766.59
2022-12-01T18:56:54.962Z,102766.84
2022-12-01T18:59:21.523Z,102766.69
2022-12-01T19:01:48.552Z,102773.78
2022-12-01T19:04:16.284Z,102765.91
2022-12-01T19:06:44.216Z,102769.41
2022-12-01T19:09:12.961Z,102766.75
2022-12-01T19:11:40.770Z,102767.06
2022-12-01T19:14:11.851Z,102768.53
2022-12-01T19:16:39.941Z,102775.56
2022-12-01T19:19:06.597Z,102775.44
2022-12-01T19:21:33.046Z,102762.41
2022-12-01T19:23:59.677Z,102763.13
2022-12-01T19:26:26.202Z,102760.53
2022-12-01T19:28:53.114Z,102763.09
2022-12-01T19:31:24.898Z,102771.72
2022-12-01T19:33:53.460Z,102761.31
2022-12-01T19:36:22.209Z,102764.66
2022-12-01T19:38:49.358Z,102768.25
2022-12-01T19:41:16.216Z,102762.91
2022-12-01T19:43:42.918Z,102769.13
2022-12-01T19:46:22.230Z,102769.06
2022-12-01T19:48:57.057Z,102768.97
2022-12-01T19:51:26.876Z,102756.81
2022-12-01T19:53:54.654Z,102765.50
2022-12-01T19:56:22.141Z,102768.91
2022-12-01T19:58:48.790Z,102750.59
2022-12-01T20:01:18.059Z,102760.88
2022-12-01T20:03:46.815Z,102754.88
2022-12-01T20:06:19.571Z,102754.94
2022-12-01T20:08:46.558Z,102774.91
2022-12-01T20:11:14.373Z,102766.91
2022-12-01T20:13:43.119Z,102773.94
2022-12-01T20:16:23.483Z,102763.41
2022-12-01T20:18:51.307Z,102767.78
2022-12-01T20:21:23.413Z,102745.31
2022-12-01T20:23:54.376Z,102765.09
2022-12-01T20:26:23.881Z,102759.09
2022-12-01T20:28:53.032Z,102763.47
2022-12-01T20:31:25.051Z,102770.31
2022-12-01T20:33:53.174Z,102759.84
2022-12-01T20:36:20.441Z,102753.81
2022-12-01T20:38:47.001Z,102767.66
2022-12-01T20:41:14.008Z,102759.97
2022-12-01T20:43:40.973Z,102756.44
2022-12-01T20:46:07.675Z,102750.44
2022-12-01T20:48:34.457Z,102747.78
2022-12-01T20:51:03.397Z,102753.81
2022-12-01T20:53:30.235Z,102745.53
2022-12-01T20:55:56.915Z,102739.22
2022-12-01T20:58:23.457Z,102766.31
2022-12-01T21:00:49.960Z,102743.94
2022-12-01T21:03:16.679Z,102758.53
2022-12-01T21:05:44.160Z,102763.84
2022-12-01T21:08:12.678Z,102755.09
2022-12-01T21:10:42.475Z,102758.72
2022-12-01T21:13:42.439Z,102761.31
2022-12-01T21:16:21.343Z,102760.50
2022-12-01T21:18:55.541Z,102759.81
2022-12-01T21:21:27.719Z,102756.31
2022-12-01T21:24:13.541Z,102760.75
2022-12-01T21:26:48.321Z,102746.00
2022-12-01T21:29:25.122Z,102763.50
2022-12-01T21:31:54.526Z,102742.56
2022-12-01T21:34:24.081Z,102759.94
2022-12-01T21:36:53.947Z,102742.56
2022-12-01T21:39:22.882Z,102752.00
2022-12-01T21:41:52.110Z,102743.25
2022-12-01T21:44:20.583Z,102739.97
2022-12-01T21:46:49.944Z,102730.31
2022-12-01T21:49:21.586Z,102741.47
2022-12-01T21:51:51.300Z,102743.25
2022-12-01T21:54:22.151Z,102733.66
2022-12-01T21:56:49.408Z,102742.44
2022-12-01T21:59:19.873Z,102731.97
2022-12-01T22:01:47.842Z,102725.09
2022-12-01T22:04:22.541Z,102738.94
2022-12-01T22:06:52.516Z,102738.06
2022-12-01T22:09:26.324Z,102727.50
2022-12-01T22:12:20.775Z,102731.75
2022-12-01T22:14:47.415Z,102720.72
2022-12-01T22:17:20.402Z,102729.34
2022-12-01T22:19:57.994Z,102719.94
2022-12-01T22:22:26.745Z,102708.66
2022-12-01T22:24:58.669Z,102729.59
2022-12-01T22:27:35.828Z,102725.16
2022-12-01T22:30:18.250Z,102731.38
2022-12-01T22:33:05.334Z,102735.75
2022-12-01T22:35:32.389Z,102722.69
2022-12-01T22:38:08.800Z,102728.88
2022-12-01T22:40:55.104Z,102725.44
2022-12-01T22:43:25.714Z,102721.25
2022-12-01T22:45:58.106Z,102725.69
2022-12-01T22:48:31.644Z,102728.38
2022-12-01T22:51:09.370Z,102728.44
2022-12-01T22:53:35.897Z,102719.75
2022-12-01T22:56:18.939Z,102729.47
2022-12-01T22:58:46.120Z,102725.13
2022-12-01T23:01:25.111Z,102737.28
2022-12-01T23:04:11.865Z,102736.56
2022-12-01T23:06:54.915Z,102734.81
2022-12-01T23:09:26.850Z,102727.94
2022-12-01T23:12:05.843Z,102727.03
2022-12-01T23:14:33.877Z,102736.88
2022-12-01T23:17:12.888Z,102730.66
2022-12-01T23:19:39.411Z,102732.59
2022-12-01T23:22:05.842Z,102718.75
2022-12-01T23:24:34.073Z,102720.66
2022-12-01T23:27:00.947Z,102718.97
2022-12-01T23:29:27.867Z,102719.75
2022-12-01T23:31:55.323Z,102719.66
2022-12-01T23:34:21.881Z,102721.38
2022-12-01T23:36:50.146Z,102721.38
2022-12-01T23:39:18.583Z,102712.84
2022-12-01T23:41:51.107Z,102723.09
2022-12-01T23:44:26.973Z,102724.78
2022-12-01T23:46:58.664Z,102722.19
2022-12-01T23:49:32.218Z,102715.22
2022-12-01T23:52:01.169Z,102723.06
2022-12-01T23:54:30.953Z,102710.75
2022-12-01T23:57:22.022Z,102707.09
2022-12-01T23:59:50.507Z,102697.78
